sensor_id;sensor_type;location;lat;lon;timestamp;temperature;humidity
21169;DHT22;10742;51.816;8.662;2023-03-31T00:00:51;15.20;91.40
21169;DHT22;10742;51.816;8.662;2023-03-31T00:04:12;15.20;91.80
21169;DHT22;10742;51.816;8.662;2023-03-31T00:07:33;15.10;91.30
21169;DHT22;10742;51.816;8.662;2023-03-31T00:11:03;15.10;91.20
21169;DHT22;10742;51.816;8.662;2023-03-31T00:14:24;15.00;91.30
21169;DHT22;10742;51.816;8.662;2023-03-31T00:17:46;15.00;91.20
21169;DHT22;10742;51.816;8.662;2023-03-31T00:21:13;15.00;91.60
21169;DHT22;10742;51.816;8.662;2023-03-31T00:24:35;14.90;91.40
21169;DHT22;10742;51.816;8.662;2023-03-31T00:27:56;14.80;91.30
21169;DHT22;10742;51.816;8.662;2023-03-31T00:31:17;14.80;91.30
21169;DHT22;10742;51.816;8.662;2023-03-31T00:34:40;14.80;91.40
21169;DHT22;10742;51.816;8.662;2023-03-31T00:38:01;14.70;91.40
21169;DHT22;10742;51.816;8.662;2023-03-31T00:41:22;14.70;91.50
21169;DHT22;10742;51.816;8.662;2023-03-31T00:48:36;14.60;91.80
21169;DHT22;10742;51.816;8.662;2023-03-31T00:52:05;14.60;91.70
21169;DHT22;10742;51.816;8.662;2023-03-31T00:55:33;14.60;91.90
21169;DHT22;10742;51.816;8.662;2023-03-31T00:59:01;14.60;92.00
21169;DHT22;10742;51.816;8.662;2023-03-31T01:02:23;14.60;92.10
21169;DHT22;10742;51.816;8.662;2023-03-31T01:05:49;14.60;92.00
21169;DHT22;10742;51.816;8.662;2023-03-31T01:09:11;14.60;92.10
21169;DHT22;10742;51.816;8.662;2023-03-31T01:12:36;14.60;92.10
21169;DHT22;10742;51.816;8.662;2023-03-31T01:15:58;14.60;92.20
21169;DHT22;10742;51.816;8.662;2023-03-31T01:19:31;14.60;92.10
21169;DHT22;10742;51.816;8.662;2023-03-31T01:30:42;14.70;92.30
21169;DHT22;10742;51.816;8.662;2023-03-31T01:38:18;14.70;92.40
21169;DHT22;10742;51.816;8.662;2023-03-31T01:42:13;14.70;92.40
21169;DHT22;10742;51.816;8.662;2023-03-31T01:50:07;14.70;92.50
21169;DHT22;10742;51.816;8.662;2023-03-31T01:53:50;14.70;92.40
21169;DHT22;10742;51.816;8.662;2023-03-31T01:57:18;14.80;92.60
21169;DHT22;10742;51.816;8.662;2023-03-31T02:00:44;14.70;92.40
21169;DHT22;10742;51.816;8.662;2023-03-31T02:04:19;14.70;92.40
21169;DHT22;10742;51.816;8.662;2023-03-31T02:07:54;14.70;92.40
21169;DHT22;10742;51.816;8.662;2023-03-31T02:11:16;14.70;92.60
21169;DHT22;10742;51.816;8.662;2023-03-31T02:14:44;14.70;92.40
21169;DHT22;10742;51.816;8.662;2023-03-31T02:18:10;14.70;92.50
21169;DHT22;10742;51.816;8.662;2023-03-31T02:21:36;14.70;92.50
21169;DHT22;10742;51.816;8.662;2023-03-31T02:25:00;14.70;92.50
21169;DHT22;10742;51.816;8.662;2023-03-31T02:28:25;14.70;92.50
21169;DHT22;10742;51.816;8.662;2023-03-31T02:32:03;14.70;92.60
21169;DHT22;10742;51.816;8.662;2023-03-31T02:35:28;14.70;92.70
21169;DHT22;10742;51.816;8.662;2023-03-31T02:38:55;14.70;92.50
21169;DHT22;10742;51.816;8.662;2023-03-31T02:42:18;14.70;92.60
21169;DHT22;10742;51.816;8.662;2023-03-31T02:45:49;14.80;92.90
21169;DHT22;10742;51.816;8.662;2023-03-31T02:49:12;14.80;92.70
21169;DHT22;10742;51.816;8.662;2023-03-31T02:52:40;14.80;92.60
21169;DHT22;10742;51.816;8.662;2023-03-31T03:03:48;14.80;92.70
21169;DHT22;10742;51.816;8.662;2023-03-31T03:11:04;14.90;92.70
21169;DHT22;10742;51.816;8.662;2023-03-31T03:14:36;14.80;92.80
21169;DHT22;10742;51.816;8.662;2023-03-31T03:18:01;14.90;92.90
21169;DHT22;10742;51.816;8.662;2023-03-31T03:21:23;14.90;92.90
21169;DHT22;10742;51.816;8.662;2023-03-31T03:24:44;14.90;93.00
21169;DHT22;10742;51.816;8.662;2023-03-31T03:28:05;14.80;93.00
21169;DHT22;10742;51.816;8.662;2023-03-31T03:31:27;14.90;93.10
21169;DHT22;10742;51.816;8.662;2023-03-31T03:34:48;14.90;93.10
21169;DHT22;10742;51.816;8.662;2023-03-31T03:38:09;14.80;93.30
21169;DHT22;10742;51.816;8.662;2023-03-31T03:41:30;14.90;93.30
21169;DHT22;10742;51.816;8.662;2023-03-31T03:44:53;14.90;93.40
21169;DHT22;10742;51.816;8.662;2023-03-31T03:48:14;14.80;93.40
21169;DHT22;10742;51.816;8.662;2023-03-31T03:51:36;14.80;93.50
21169;DHT22;10742;51.816;8.662;2023-03-31T03:54:57;14.80;93.60
21169;DHT22;10742;51.816;8.662;2023-03-31T03:58:18;14.80;93.60
21169;DHT22;10742;51.816;8.662;2023-03-31T04:01:39;14.80;93.70
21169;DHT22;10742;51.816;8.662;2023-03-31T04:05:00;14.80;93.80
21169;DHT22;10742;51.816;8.662;2023-03-31T04:08:22;14.80;93.80
21169;DHT22;10742;51.816;8.662;2023-03-31T04:11:43;14.80;93.80
21169;DHT22;10742;51.816;8.662;2023-03-31T04:15:05;14.80;93.90
21169;DHT22;10742;51.816;8.662;2023-03-31T04:18:26;14.80;93.90
21169;DHT22;10742;51.816;8.662;2023-03-31T04:21:48;14.80;93.90
21169;DHT22;10742;51.816;8.662;2023-03-31T04:25:11;14.90;94.00
21169;DHT22;10742;51.816;8.662;2023-03-31T04:28:37;14.80;94.00
21169;DHT22;10742;51.816;8.662;2023-03-31T04:31:59;14.90;94.10
21169;DHT22;10742;51.816;8.662;2023-03-31T04:35:22;14.90;94.10
21169;DHT22;10742;51.816;8.662;2023-03-31T04:38:46;14.80;94.10
21169;DHT22;10742;51.816;8.662;2023-03-31T04:42:07;14.90;94.20
21169;DHT22;10742;51.816;8.662;2023-03-31T04:45:28;14.90;94.10
21169;DHT22;10742;51.816;8.662;2023-03-31T04:48:49;14.90;94.00
21169;DHT22;10742;51.816;8.662;2023-03-31T04:52:11;14.80;94.00
21169;DHT22;10742;51.816;8.662;2023-03-31T04:55:33;14.80;94.00
21169;DHT22;10742;51.816;8.662;2023-03-31T04:58:54;14.80;94.10
21169;DHT22;10742;51.816;8.662;2023-03-31T05:02:15;14.80;94.10
21169;DHT22;10742;51.816;8.662;2023-03-31T05:05:44;14.80;94.10
21169;DHT22;10742;51.816;8.662;2023-03-31T05:09:05;14.80;94.10
21169;DHT22;10742;51.816;8.662;2023-03-31T05:12:27;14.80;94.20
21169;DHT22;10742;51.816;8.662;2023-03-31T05:15:48;14.80;94.20
21169;DHT22;10742;51.816;8.662;2023-03-31T05:19:10;14.80;94.20
21169;DHT22;10742;51.816;8.662;2023-03-31T05:22:34;14.80;94.30
21169;DHT22;10742;51.816;8.662;2023-03-31T05:25:55;14.80;94.40
21169;DHT22;10742;51.816;8.662;2023-03-31T05:29:19;14.80;94.30
21169;DHT22;10742;51.816;8.662;2023-03-31T05:32:41;14.70;94.30
21169;DHT22;10742;51.816;8.662;2023-03-31T05:36:02;14.70;94.40
21169;DHT22;10742;51.816;8.662;2023-03-31T05:39:24;14.70;94.40
21169;DHT22;10742;51.816;8.662;2023-03-31T05:42:45;14.80;94.50
21169;DHT22;10742;51.816;8.662;2023-03-31T05:46:06;14.80;94.50
21169;DHT22;10742;51.816;8.662;2023-03-31T05:49:28;14.80;94.50
21169;DHT22;10742;51.816;8.662;2023-03-31T05:52:49;14.80;94.60
21169;DHT22;10742;51.816;8.662;2023-03-31T05:56:10;14.80;94.60
21169;DHT22;10742;51.816;8.662;2023-03-31T05:59:32;14.80;94.60
21169;DHT22;10742;51.816;8.662;2023-03-31T06:02:55;14.80;94.60
21169;DHT22;10742;51.816;8.662;2023-03-31T06:06:17;14.80;94.70
21169;DHT22;10742;51.816;8.662;2023-03-31T06:09:39;14.80;94.60
21169;DHT22;10742;51.816;8.662;2023-03-31T06:13:00;14.80;94.70
21169;DHT22;10742;51.816;8.662;2023-03-31T06:16:21;14.80;94.70
21169;DHT22;10742;51.816;8.662;2023-03-31T06:19:42;14.90;94.70
21169;DHT22;10742;51.816;8.662;2023-03-31T06:23:03;14.80;94.70
21169;DHT22;10742;51.816;8.662;2023-03-31T06:26:24;14.80;94.70
21169;DHT22;10742;51.816;8.662;2023-03-31T06:29:45;14.90;94.70
21169;DHT22;10742;51.816;8.662;2023-03-31T06:33:07;14.90;94.60
21169;DHT22;10742;51.816;8.662;2023-03-31T06:36:28;14.90;94.70
21169;DHT22;10742;51.816;8.662;2023-03-31T06:39:49;14.90;94.60
21169;DHT22;10742;51.816;8.662;2023-03-31T06:43:10;14.90;94.70
21169;DHT22;10742;51.816;8.662;2023-03-31T06:46:32;14.90;94.70
21169;DHT22;10742;51.816;8.662;2023-03-31T06:49:53;15.00;94.70
21169;DHT22;10742;51.816;8.662;2023-03-31T06:53:13;14.90;94.60
21169;DHT22;10742;51.816;8.662;2023-03-31T06:56:34;15.00;94.60
21169;DHT22;10742;51.816;8.662;2023-03-31T06:59:55;15.00;94.60
21169;DHT22;10742;51.816;8.662;2023-03-31T07:03:16;15.00;94.60
21169;DHT22;10742;51.816;8.662;2023-03-31T07:06:38;15.10;94.60
21169;DHT22;10742;51.816;8.662;2023-03-31T07:09:59;15.00;94.60
21169;DHT22;10742;51.816;8.662;2023-03-31T07:13:20;15.00;94.50
21169;DHT22;10742;51.816;8.662;2023-03-31T07:16:41;15.00;94.50
21169;DHT22;10742;51.816;8.662;2023-03-31T07:20:03;15.00;94.60
21169;DHT22;10742;51.816;8.662;2023-03-31T07:23:24;15.00;94.50
21169;DHT22;10742;51.816;8.662;2023-03-31T07:26:45;15.00;94.60
21169;DHT22;10742;51.816;8.662;2023-03-31T07:30:09;15.10;94.80
21169;DHT22;10742;51.816;8.662;2023-03-31T07:33:31;15.10;94.90
21169;DHT22;10742;51.816;8.662;2023-03-31T07:36:54;15.10;94.70
21169;DHT22;10742;51.816;8.662;2023-03-31T07:40:25;15.10;94.80
21169;DHT22;10742;51.816;8.662;2023-03-31T07:43:47;15.10;94.70
21169;DHT22;10742;51.816;8.662;2023-03-31T07:47:08;15.10;94.70
21169;DHT22;10742;51.816;8.662;2023-03-31T07:50:29;15.10;94.70
21169;DHT22;10742;51.816;8.662;2023-03-31T07:53:53;15.10;94.70
21169;DHT22;10742;51.816;8.662;2023-03-31T07:57:15;15.20;94.70
21169;DHT22;10742;51.816;8.662;2023-03-31T08:00:37;15.20;94.80
21169;DHT22;10742;51.816;8.662;2023-03-31T08:03:58;15.20;94.80
21169;DHT22;10742;51.816;8.662;2023-03-31T08:07:19;15.20;94.70
21169;DHT22;10742;51.816;8.662;2023-03-31T08:10:40;15.30;94.70
21169;DHT22;10742;51.816;8.662;2023-03-31T08:14:01;15.30;94.70
21169;DHT22;10742;51.816;8.662;2023-03-31T08:17:22;15.30;94.70
21169;DHT22;10742;51.816;8.662;2023-03-31T08:20:43;15.30;94.80
21169;DHT22;10742;51.816;8.662;2023-03-31T08:24:04;15.40;94.70
21169;DHT22;10742;51.816;8.662;2023-03-31T08:27:25;15.40;94.60
21169;DHT22;10742;51.816;8.662;2023-03-31T08:30:47;15.40;94.50
21169;DHT22;10742;51.816;8.662;2023-03-31T08:34:08;15.50;94.50
21169;DHT22;10742;51.816;8.662;2023-03-31T08:37:29;15.50;94.40
21169;DHT22;10742;51.816;8.662;2023-03-31T08:40:51;15.50;94.40
21169;DHT22;10742;51.816;8.662;2023-03-31T08:48:13;15.40;94.40
21169;DHT22;10742;51.816;8.662;2023-03-31T08:52:07;15.40;94.30
21169;DHT22;10742;51.816;8.662;2023-03-31T08:55:33;15.40;94.30
21169;DHT22;10742;51.816;8.662;2023-03-31T08:58:56;15.40;94.30
21169;DHT22;10742;51.816;8.662;2023-03-31T09:06:15;15.40;94.40
21169;DHT22;10742;51.816;8.662;2023-03-31T09:10:19;15.30;94.40
21169;DHT22;10742;51.816;8.662;2023-03-31T09:13:54;15.30;94.30
21169;DHT22;10742;51.816;8.662;2023-03-31T09:17:26;15.30;94.20
21169;DHT22;10742;51.816;8.662;2023-03-31T09:20:50;15.30;94.20
21169;DHT22;10742;51.816;8.662;2023-03-31T09:24:22;15.30;94.20
21169;DHT22;10742;51.816;8.662;2023-03-31T09:27:49;15.20;94.30
21169;DHT22;10742;51.816;8.662;2023-03-31T09:31:14;15.20;94.20
21169;DHT22;10742;51.816;8.662;2023-03-31T09:34:36;15.20;94.20
21169;DHT22;10742;51.816;8.662;2023-03-31T09:37:58;15.20;94.30
21169;DHT22;10742;51.816;8.662;2023-03-31T09:41:21;15.20;94.40
21169;DHT22;10742;51.816;8.662;2023-03-31T09:44:49;15.20;94.40
21169;DHT22;10742;51.816;8.662;2023-03-31T09:48:15;15.10;94.50
21169;DHT22;10742;51.816;8.662;2023-03-31T09:51:41;15.20;94.50
21169;DHT22;10742;51.816;8.662;2023-03-31T09:55:14;15.20;94.60
21169;DHT22;10742;51.816;8.662;2023-03-31T09:58:42;15.20;94.70
21169;DHT22;10742;51.816;8.662;2023-03-31T10:02:22;15.20;94.70
21169;DHT22;10742;51.816;8.662;2023-03-31T10:05:50;15.10;94.90
21169;DHT22;10742;51.816;8.662;2023-03-31T10:09:12;15.20;94.90
21169;DHT22;10742;51.816;8.662;2023-03-31T10:12:34;15.20;94.80
21169;DHT22;10742;51.816;8.662;2023-03-31T10:16:03;15.20;94.80
21169;DHT22;10742;51.816;8.662;2023-03-31T10:19:27;15.20;94.90
21169;DHT22;10742;51.816;8.662;2023-03-31T10:22:49;15.20;94.70
21169;DHT22;10742;51.816;8.662;2023-03-31T10:26:15;15.20;94.80
21169;DHT22;10742;51.816;8.662;2023-03-31T10:29:37;15.20;94.60
21169;DHT22;10742;51.816;8.662;2023-03-31T10:32:58;15.20;94.60
21169;DHT22;10742;51.816;8.662;2023-03-31T10:36:26;15.30;94.60
21169;DHT22;10742;51.816;8.662;2023-03-31T10:40:11;15.20;94.80
21169;DHT22;10742;51.816;8.662;2023-03-31T10:47:20;15.20;94.40
21169;DHT22;10742;51.816;8.662;2023-03-31T10:50:42;15.10;94.30
21169;DHT22;10742;51.816;8.662;2023-03-31T10:54:03;15.10;94.20
21169;DHT22;10742;51.816;8.662;2023-03-31T11:02:03;14.90;94.40
21169;DHT22;10742;51.816;8.662;2023-03-31T11:17:02;14.90;94.80
21169;DHT22;10742;51.816;8.662;2023-03-31T11:32:09;15.20;96.20
21169;DHT22;10742;51.816;8.662;2023-03-31T11:39:39;15.60;96.80
21169;DHT22;10742;51.816;8.662;2023-03-31T11:43:15;15.90;96.80
21169;DHT22;10742;51.816;8.662;2023-03-31T11:46:59;16.20;96.80
21169;DHT22;10742;51.816;8.662;2023-03-31T11:50:26;16.40;96.90
21169;DHT22;10742;51.816;8.662;2023-03-31T11:53:51;16.70;96.70
21169;DHT22;10742;51.816;8.662;2023-03-31T12:00:47;17.20;96.10
21169;DHT22;10742;51.816;8.662;2023-03-31T12:04:33;17.40;95.50
21169;DHT22;10742;51.816;8.662;2023-03-31T12:08:15;17.60;95.20
21169;DHT22;10742;51.816;8.662;2023-03-31T12:12:02;17.80;94.70
21169;DHT22;10742;51.816;8.662;2023-03-31T12:15:30;17.90;94.40
21169;DHT22;10742;51.816;8.662;2023-03-31T12:22:37;18.00;94.10
21169;DHT22;10742;51.816;8.662;2023-03-31T12:33:32;18.00;93.50
21169;DHT22;10742;51.816;8.662;2023-03-31T12:40:58;18.00;93.00
21169;DHT22;10742;51.816;8.662;2023-03-31T12:44:38;18.00;93.10
21169;DHT22;10742;51.816;8.662;2023-03-31T12:51:58;17.90;93.00
21169;DHT22;10742;51.816;8.662;2023-03-31T12:58:54;18.00;92.80
21169;DHT22;10742;51.816;8.662;2023-03-31T13:02:35;18.00;93.10
21169;DHT22;10742;51.816;8.662;2023-03-31T13:05:56;18.10;92.80
21169;DHT22;10742;51.816;8.662;2023-03-31T13:13:05;18.10;91.60
21169;DHT22;10742;51.816;8.662;2023-03-31T13:16:33;18.00;91.30
21169;DHT22;10742;51.816;8.662;2023-03-31T13:19:56;17.90;91.50
21169;DHT22;10742;51.816;8.662;2023-03-31T13:23:35;17.70;91.70
21169;DHT22;10742;51.816;8.662;2023-03-31T13:26:58;17.60;92.00
21169;DHT22;10742;51.816;8.662;2023-03-31T13:33:58;17.30;92.10
21169;DHT22;10742;51.816;8.662;2023-03-31T13:40:54;17.20;92.20
21169;DHT22;10742;51.816;8.662;2023-03-31T13:44:33;17.10;92.20
21169;DHT22;10742;51.816;8.662;2023-03-31T13:52:03;16.80;92.20
21169;DHT22;10742;51.816;8.662;2023-03-31T13:55:48;16.70;92.30
21169;DHT22;10742;51.816;8.662;2023-03-31T13:59:24;16.60;92.50
21169;DHT22;10742;51.816;8.662;2023-03-31T14:07:08;16.40;92.60
21169;DHT22;10742;51.816;8.662;2023-03-31T14:10:33;16.30;92.80
21169;DHT22;10742;51.816;8.662;2023-03-31T14:17:37;16.20;93.00
21169;DHT22;10742;51.816;8.662;2023-03-31T14:24:54;16.10;93.40
21169;DHT22;10742;51.816;8.662;2023-03-31T14:32:04;16.10;93.70
21169;DHT22;10742;51.816;8.662;2023-03-31T14:35:33;16.10;93.60
21169;DHT22;10742;51.816;8.662;2023-03-31T14:39:04;16.10;93.80
21169;DHT22;10742;51.816;8.662;2023-03-31T14:42:37;16.10;93.70
21169;DHT22;10742;51.816;8.662;2023-03-31T14:46:07;16.10;93.90
21169;DHT22;10742;51.816;8.662;2023-03-31T14:49:34;16.20;93.90
21169;DHT22;10742;51.816;8.662;2023-03-31T14:52:56;16.20;94.00
21169;DHT22;10742;51.816;8.662;2023-03-31T14:56:24;16.20;93.90
21169;DHT22;10742;51.816;8.662;2023-03-31T14:59:50;16.20;93.90
21169;DHT22;10742;51.816;8.662;2023-03-31T15:03:14;16.30;93.90
21169;DHT22;10742;51.816;8.662;2023-03-31T15:06:35;16.30;93.90
21169;DHT22;10742;51.816;8.662;2023-03-31T15:09:59;16.30;93.90
21169;DHT22;10742;51.816;8.662;2023-03-31T15:13:48;16.30;93.90
21169;DHT22;10742;51.816;8.662;2023-03-31T15:17:27;16.40;94.00
21169;DHT22;10742;51.816;8.662;2023-03-31T15:20:48;16.30;93.80
21169;DHT22;10742;51.816;8.662;2023-03-31T15:24:13;16.40;93.80
21169;DHT22;10742;51.816;8.662;2023-03-31T15:27:37;16.40;93.80
21169;DHT22;10742;51.816;8.662;2023-03-31T15:30:59;16.40;93.80
21169;DHT22;10742;51.816;8.662;2023-03-31T15:34:31;16.50;93.90
21169;DHT22;10742;51.816;8.662;2023-03-31T15:37:55;16.50;93.90
21169;DHT22;10742;51.816;8.662;2023-03-31T15:41:17;16.60;93.90
21169;DHT22;10742;51.816;8.662;2023-03-31T15:48:04;16.60;93.90
21169;DHT22;10742;51.816;8.662;2023-03-31T15:51:38;16.70;93.80
21169;DHT22;10742;51.816;8.662;2023-03-31T15:55:20;16.70;93.80
21169;DHT22;10742;51.816;8.662;2023-03-31T15:58:56;16.70;93.80
21169;DHT22;10742;51.816;8.662;2023-03-31T16:02:23;16.70;93.70
21169;DHT22;10742;51.816;8.662;2023-03-31T16:05:53;16.80;93.70
21169;DHT22;10742;51.816;8.662;2023-03-31T16:12:55;16.80;93.60
21169;DHT22;10742;51.816;8.662;2023-03-31T16:16:34;16.80;93.60
21169;DHT22;10742;51.816;8.662;2023-03-31T16:20:03;16.90;93.60
21169;DHT22;10742;51.816;8.662;2023-03-31T16:23:31;16.80;93.60
21169;DHT22;10742;51.816;8.662;2023-03-31T16:27:00;16.90;93.70
21169;DHT22;10742;51.816;8.662;2023-03-31T16:30:38;16.90;93.60
21169;DHT22;10742;51.816;8.662;2023-03-31T16:34:02;16.90;93.70
21169;DHT22;10742;51.816;8.662;2023-03-31T16:37:24;16.90;93.60
21169;DHT22;10742;51.816;8.662;2023-03-31T16:40:50;16.90;93.70
21169;DHT22;10742;51.816;8.662;2023-03-31T16:44:12;16.90;93.70
21169;DHT22;10742;51.816;8.662;2023-03-31T16:47:32;17.00;93.60
21169;DHT22;10742;51.816;8.662;2023-03-31T16:50:56;16.90;93.60
21169;DHT22;10742;51.816;8.662;2023-03-31T16:54:18;16.90;93.60
21169;DHT22;10742;51.816;8.662;2023-03-31T16:57:39;16.90;93.50
21169;DHT22;10742;51.816;8.662;2023-03-31T17:01:00;16.90;93.50
21169;DHT22;10742;51.816;8.662;2023-03-31T17:04:21;16.90;93.50
21169;DHT22;10742;51.816;8.662;2023-03-31T17:07:45;16.80;93.60
21169;DHT22;10742;51.816;8.662;2023-03-31T17:11:09;16.80;93.90
21169;DHT22;10742;51.816;8.662;2023-03-31T17:14:31;16.80;94.00
21169;DHT22;10742;51.816;8.662;2023-03-31T17:17:52;16.80;94.00
21169;DHT22;10742;51.816;8.662;2023-03-31T17:21:15;16.80;94.00
21169;DHT22;10742;51.816;8.662;2023-03-31T17:24:38;16.90;94.10
21169;DHT22;10742;51.816;8.662;2023-03-31T17:27:59;16.90;93.90
21169;DHT22;10742;51.816;8.662;2023-03-31T17:31:21;16.90;93.80
21169;DHT22;10742;51.816;8.662;2023-03-31T17:34:44;17.00;93.70
21169;DHT22;10742;51.816;8.662;2023-03-31T17:38:08;17.00;93.50
21169;DHT22;10742;51.816;8.662;2023-03-31T17:41:30;17.00;93.40
21169;DHT22;10742;51.816;8.662;2023-03-31T17:44:52;17.00;93.60
21169;DHT22;10742;51.816;8.662;2023-03-31T17:48:13;16.90;93.20
21169;DHT22;10742;51.816;8.662;2023-03-31T17:51:36;16.90;93.00
21169;DHT22;10742;51.816;8.662;2023-03-31T17:54:57;16.80;92.80
21169;DHT22;10742;51.816;8.662;2023-03-31T17:58:18;16.70;92.80
21169;DHT22;10742;51.816;8.662;2023-03-31T18:01:39;16.70;92.70
21169;DHT22;10742;51.816;8.662;2023-03-31T18:05:00;16.60;92.80
21169;DHT22;10742;51.816;8.662;2023-03-31T18:08:21;16.50;92.90
21169;DHT22;10742;51.816;8.662;2023-03-31T18:11:42;16.40;92.90
21169;DHT22;10742;51.816;8.662;2023-03-31T18:15:04;16.30;92.90
21169;DHT22;10742;51.816;8.662;2023-03-31T18:18:26;16.20;92.90
21169;DHT22;10742;51.816;8.662;2023-03-31T18:21:49;16.10;92.90
21169;DHT22;10742;51.816;8.662;2023-03-31T18:25:10;16.10;92.90
21169;DHT22;10742;51.816;8.662;2023-03-31T18:28:31;16.00;92.90
21169;DHT22;10742;51.816;8.662;2023-03-31T18:31:52;15.90;93.00
21169;DHT22;10742;51.816;8.662;2023-03-31T18:35:14;15.80;93.00
21169;DHT22;10742;51.816;8.662;2023-03-31T18:38:35;15.80;93.10
21169;DHT22;10742;51.816;8.662;2023-03-31T18:41:56;15.70;93.10
21169;DHT22;10742;51.816;8.662;2023-03-31T18:45:19;15.70;93.10
21169;DHT22;10742;51.816;8.662;2023-03-31T18:48:40;15.60;93.20
21169;DHT22;10742;51.816;8.662;2023-03-31T18:52:02;15.60;93.20
21169;DHT22;10742;51.816;8.662;2023-03-31T18:55:24;15.60;93.30
21169;DHT22;10742;51.816;8.662;2023-03-31T18:58:45;15.50;93.30
21169;DHT22;10742;51.816;8.662;2023-03-31T19:02:06;15.50;93.30
21169;DHT22;10742;51.816;8.662;2023-03-31T19:05:29;15.50;93.40
21169;DHT22;10742;51.816;8.662;2023-03-31T19:08:55;15.40;93.40
21169;DHT22;10742;51.816;8.662;2023-03-31T19:12:16;15.40;93.50
21169;DHT22;10742;51.816;8.662;2023-03-31T19:15:37;15.40;93.50
21169;DHT22;10742;51.816;8.662;2023-03-31T19:18:58;15.40;93.50
21169;DHT22;10742;51.816;8.662;2023-03-31T19:22:19;15.30;93.60
21169;DHT22;10742;51.816;8.662;2023-03-31T19:25:40;15.40;93.60
21169;DHT22;10742;51.816;8.662;2023-03-31T19:29:03;15.30;93.60
21169;DHT22;10742;51.816;8.662;2023-03-31T19:32:25;15.30;93.60
21169;DHT22;10742;51.816;8.662;2023-03-31T19:35:47;15.30;93.70
21169;DHT22;10742;51.816;8.662;2023-03-31T19:39:08;15.30;93.70
21169;DHT22;10742;51.816;8.662;2023-03-31T19:42:34;15.30;93.70
21169;DHT22;10742;51.816;8.662;2023-03-31T19:45:55;15.20;93.90
21169;DHT22;10742;51.816;8.662;2023-03-31T19:49:19;15.20;93.90
21169;DHT22;10742;51.816;8.662;2023-03-31T19:52:41;15.20;94.00
21169;DHT22;10742;51.816;8.662;2023-03-31T19:56:06;15.20;94.10
21169;DHT22;10742;51.816;8.662;2023-03-31T19:59:29;15.20;94.20
21169;DHT22;10742;51.816;8.662;2023-03-31T20:02:49;15.20;94.10
21169;DHT22;10742;51.816;8.662;2023-03-31T20:06:13;15.20;94.10
21169;DHT22;10742;51.816;8.662;2023-03-31T20:09:37;15.20;94.20
21169;DHT22;10742;51.816;8.662;2023-03-31T20:12:57;15.10;94.20
21169;DHT22;10742;51.816;8.662;2023-03-31T20:16:22;15.10;94.30
21169;DHT22;10742;51.816;8.662;2023-03-31T20:19:43;15.10;94.40
21169;DHT22;10742;51.816;8.662;2023-03-31T20:23:04;15.00;94.30
21169;DHT22;10742;51.816;8.662;2023-03-31T20:26:27;15.00;94.50
21169;DHT22;10742;51.816;8.662;2023-03-31T20:29:52;15.00;94.60
21169;DHT22;10742;51.816;8.662;2023-03-31T20:33:13;15.00;94.60
21169;DHT22;10742;51.816;8.662;2023-03-31T20:36:36;15.00;94.60
21169;DHT22;10742;51.816;8.662;2023-03-31T20:39:57;15.00;94.60
21169;DHT22;10742;51.816;8.662;2023-03-31T20:43:19;15.00;94.70
21169;DHT22;10742;51.816;8.662;2023-03-31T20:46:41;15.00;94.70
21169;DHT22;10742;51.816;8.662;2023-03-31T20:50:03;15.00;94.70
21169;DHT22;10742;51.816;8.662;2023-03-31T20:53:25;15.00;94.80
21169;DHT22;10742;51.816;8.662;2023-03-31T20:56:46;15.00;94.80
21169;DHT22;10742;51.816;8.662;2023-03-31T21:00:07;14.90;94.80
21169;DHT22;10742;51.816;8.662;2023-03-31T21:03:29;14.90;94.90
21169;DHT22;10742;51.816;8.662;2023-03-31T21:06:50;14.90;94.90
21169;DHT22;10742;51.816;8.662;2023-03-31T21:10:11;14.90;94.90
21169;DHT22;10742;51.816;8.662;2023-03-31T21:13:32;14.90;94.90
21169;DHT22;10742;51.816;8.662;2023-03-31T21:16:54;14.90;94.90
21169;DHT22;10742;51.816;8.662;2023-03-31T21:20:15;14.90;94.90
21169;DHT22;10742;51.816;8.662;2023-03-31T21:23:37;14.90;94.90
21169;DHT22;10742;51.816;8.662;2023-03-31T21:26:58;14.90;94.90
21169;DHT22;10742;51.816;8.662;2023-03-31T21:30:20;14.90;94.90
21169;DHT22;10742;51.816;8.662;2023-03-31T21:33:43;14.90;94.90
21169;DHT22;10742;51.816;8.662;2023-03-31T21:37:04;14.80;94.90
21169;DHT22;10742;51.816;8.662;2023-03-31T21:40:25;14.80;94.90
21169;DHT22;10742;51.816;8.662;2023-03-31T21:43:47;14.80;95.00
21169;DHT22;10742;51.816;8.662;2023-03-31T21:47:08;14.80;95.00
21169;DHT22;10742;51.816;8.662;2023-03-31T21:50:29;14.80;95.10
21169;DHT22;10742;51.816;8.662;2023-03-31T21:53:52;14.70;95.00
21169;DHT22;10742;51.816;8.662;2023-03-31T21:57:15;14.70;95.10
21169;DHT22;10742;51.816;8.662;2023-03-31T22:00:36;14.70;95.10
21169;DHT22;10742;51.816;8.662;2023-03-31T22:03:57;14.70;95.10
21169;DHT22;10742;51.816;8.662;2023-03-31T22:07:18;14.70;95.10
21169;DHT22;10742;51.816;8.662;2023-03-31T22:10:40;14.70;95.00
21169;DHT22;10742;51.816;8.662;2023-03-31T22:14:01;14.70;95.00
21169;DHT22;10742;51.816;8.662;2023-03-31T22:17:23;14.70;95.00
21169;DHT22;10742;51.816;8.662;2023-03-31T22:20:45;14.70;95.10
21169;DHT22;10742;51.816;8.662;2023-03-31T22:24:09;14.70;95.00
21169;DHT22;10742;51.816;8.662;2023-03-31T22:27:32;14.60;95.00
21169;DHT22;10742;51.816;8.662;2023-03-31T22:30:53;14.60;94.90
21169;DHT22;10742;51.816;8.662;2023-03-31T22:34:14;14.60;94.90
21169;DHT22;10742;51.816;8.662;2023-03-31T22:37:35;14.60;94.90
21169;DHT22;10742;51.816;8.662;2023-03-31T22:40:56;14.60;95.00
21169;DHT22;10742;51.816;8.662;2023-03-31T22:44:17;14.50;94.90
21169;DHT22;10742;51.816;8.662;2023-03-31T22:47:38;14.50;95.00
21169;DHT22;10742;51.816;8.662;2023-03-31T22:51:05;14.50;95.10
21169;DHT22;10742;51.816;8.662;2023-03-31T22:54:27;14.50;95.20
21169;DHT22;10742;51.816;8.662;2023-03-31T22:57:48;14.50;95.10
21169;DHT22;10742;51.816;8.662;2023-03-31T23:01:14;14.50;95.10
21169;DHT22;10742;51.816;8.662;2023-03-31T23:04:36;14.50;95.20
21169;DHT22;10742;51.816;8.662;2023-03-31T23:07:57;14.50;95.10
21169;DHT22;10742;51.816;8.662;2023-03-31T23:11:18;14.40;95.10
21169;DHT22;10742;51.816;8.662;2023-03-31T23:14:39;14.40;95.10
21169;DHT22;10742;51.816;8.662;2023-03-31T23:18:00;14.40;95.10
21169;DHT22;10742;51.816;8.662;2023-03-31T23:21:23;14.40;95.10
21169;DHT22;10742;51.816;8.662;2023-03-31T23:24:47;14.40;95.20
21169;DHT22;10742;51.816;8.662;2023-03-31T23:28:08;14.40;95.20
21169;DHT22;10742;51.816;8.662;2023-03-31T23:31:31;14.40;95.20
21169;DHT22;10742;51.816;8.662;2023-03-31T23:34:52;14.40;95.20
21169;DHT22;10742;51.816;8.662;2023-03-31T23:38:13;14.40;95.20
21169;DHT22;10742;51.816;8.662;2023-03-31T23:41:35;14.40;95.20
21169;DHT22;10742;51.816;8.662;2023-03-31T23:44:55;14.40;95.10
21169;DHT22;10742;51.816;8.662;2023-03-31T23:48:16;14.40;95.10